Time;durP1;ratioP1;P1;durP2;ratioP2;P2;SDS_P1;SDS_P2;PMS_P1;PMS_P2;Temp;Humidity;BMP_temperature;BMP_pressure;BME280_temperature;BME280_humidity;BME280_pressure;Samples;Min_cycle;Max_cycle;Signal;HPM_P1;HPM_P2
2023/08/24 00:01:27;;;;;;;76.28;71.67;;;;;;;16.52;72.35;100497.83;1787420;80;25440;-41
2023/08/24 00:03:53;;;;;;;76.95;72.15;;;;;;;16.53;72.41;100495.31;1819749;78;25523;-42
2023/08/24 00:06:19;;;;;;;77.37;72.45;;;;;;;16.53;72.70;100495.31;1787435;80;27474;-41
2023/08/24 00:08:45;;;;;;;79.05;74.15;;;;;;;16.51;72.78;100488.82;1814414;78;25638;-40
2023/08/24 00:11:14;;;;;;;76.97;72.25;;;;;;;16.52;73.05;100493.73;1787450;80;25606;-41
2023/08/24 00:13:49;;;;;;;79.15;74.15;;;;;;;16.51;73.20;100486.09;1819498;78;25452;-41
2023/08/24 00:16:10;;;;;;;;;;;;;;;16.52;73.10;100488.27;1787896;80;25543;-40
2023/08/24 00:18:36;;;;;;;77.22;72.30;;;;;;;16.54;73.48;100501.00;1787586;80;28179;-41
2023/08/24 00:21:03;;;;;;;78.72;73.40;;;;;;;16.55;73.51;100491.66;1819721;78;25380;-40
2023/08/24 00:23:29;;;;;;;76.57;71.82;;;;;;;16.55;73.57;100488.92;1787575;80;25445;-41
2023/08/24 00:25:55;;;;;;;77.87;72.80;;;;;;;16.57;73.60;100486.67;1819976;78;25490;-40
2023/08/24 00:28:21;;;;;;;76.37;71.53;;;;;;;16.59;73.69;100483.80;1787753;80;25386;-40
2023/08/24 00:30:47;;;;;;;79.30;74.20;;;;;;;16.61;73.43;100482.09;1819902;78;27477;-40
2023/08/24 00:33:13;;;;;;;77.25;72.35;;;;;;;16.63;73.30;100483.91;1787605;80;25527;-40
2023/08/24 00:35:39;;;;;;;80.03;75.05;;;;;;;16.63;73.33;100482.55;1824560;78;25547;-40
2023/08/24 00:38:06;;;;;;;78.55;73.60;;;;;;;16.64;73.22;100489.61;1793249;80;25542;-40
2023/08/24 00:40:32;;;;;;;77.78;72.75;;;;;;;16.64;73.36;100478.68;1825787;78;25427;-40
2023/08/24 00:42:58;;;;;;;77.27;72.32;;;;;;;16.65;73.22;100484.34;1793336;80;27478;-40
2023/08/24 00:45:25;;;;;;;76.75;71.95;;;;;;;16.65;73.29;100480.25;1825703;78;25534;-40
2023/08/24 00:47:52;;;;;;;80.15;75.00;;;;;;;16.64;73.61;100479.27;1793306;80;25610;-41
2023/08/24 00:50:19;;;;;;;76.97;72.12;;;;;;;16.62;73.47;100479.02;1825783;78;25453;-42
2023/08/24 00:52:47;;;;;;;77.87;73.00;;;;;;;16.60;73.59;100483.22;1793306;80;25689;-40
2023/08/24 00:55:14;;;;;;;77.78;72.82;;;;;;;16.57;73.53;100481.20;1795749;78;27514;-40
2023/08/24 00:57:41;;;;;;;78.70;73.40;;;;;;;16.54;73.92;100482.68;1764252;80;25563;-40
2023/08/24 01:00:10;;;;;;;78.22;73.33;;;;;;;16.54;73.80;100484.63;1825751;78;25578;-40
2023/08/24 01:02:39;;;;;;;77.20;72.30;;;;;;;16.52;73.81;100480.87;1793488;80;25551;-40
2023/08/24 01:05:07;;;;;;;77.58;72.87;;;;;;;16.49;73.80;100480.19;1825513;78;25460;-40
2023/08/24 01:07:36;;;;;;;78.17;72.85;;;;;;;16.48;73.98;100477.80;1764828;80;27973;-39
2023/08/24 01:10:06;;;;;;;77.90;72.65;;;;;;;16.46;74.02;100480.87;1825725;78;25464;-41
2023/08/24 01:13:02;;;;;;;81.57;76.07;;;;;;;16.42;73.92;100478.03;1793282;80;25629;-39
2023/08/24 01:15:58;;;;;;;79.32;73.67;;;;;;;16.41;74.72;100481.11;1825686;78;25560;-39
2023/08/24 01:18:29;;;;;;;77.12;72.03;;;;;;;16.38;74.28;100483.18;1793311;80;25546;-40
2023/08/24 01:20:56;;;;;;;76.62;71.77;;;;;;;16.36;74.42;100479.42;1825770;78;27523;-40
2023/08/24 01:23:51;;;;;;;79.00;74.03;;;;;;;16.35;74.64;100476.46;1793189;80;25617;-40
2023/08/24 01:26:19;;;;;;;77.80;72.80;;;;;;;16.34;74.69;100480.31;1825476;78;25537;-39
2023/08/24 01:28:47;;;;;;;78.37;73.50;;;;;;;16.33;74.78;100473.28;1793442;80;25846;-39
2023/08/24 01:31:18;;;;;;;77.08;72.12;;;;;;;16.31;75.12;100470.11;1825755;78;25429;-39
2023/08/24 01:33:45;;;;;;;78.72;72.87;;;;;;;16.32;75.21;100469.53;1793284;80;28048;-40
2023/08/24 01:36:16;;;;;;;78.30;72.62;;;;;;;16.31;75.20;100470.66;1820358;78;25769;-40
2023/08/24 01:38:43;;;;;;;79.03;74.00;;;;;;;16.30;75.25;100474.55;1787408;80;25634;-41
2023/08/24 01:41:26;;;;;;;78.02;73.05;;;;;;;16.29;75.29;100468.27;1819665;78;25463;-40
2023/08/24 01:43:54;;;;;;;79.00;74.00;;;;;;;16.31;75.63;100466.56;1787440;80;25394;-40
2023/08/24 01:46:22;;;;;;;77.82;72.67;;;;;;;16.33;75.59;100465.09;1819670;78;27531;-40
2023/08/24 01:48:50;;;;;;;79.72;74.72;;;;;;;16.34;75.53;100468.03;1787345;80;25698;-41
2023/08/24 01:51:16;;;;;;;77.25;72.05;;;;;;;16.36;75.54;100465.78;1819678;78;25485;-40
2023/08/24 01:53:44;;;;;;;77.97;72.97;;;;;;;16.39;75.63;100468.38;1787326;80;25424;-42
2023/08/24 01:56:17;;;;;;;78.60;73.30;;;;;;;16.41;75.53;100468.82;1819646;78;25426;-40
2023/08/24 01:58:43;;;;;;;79.65;74.55;;;;;;;16.43;75.42;100466.56;1787376;80;27636;-40
2023/08/24 02:01:13;;;;;;;78.00;73.10;;;;;;;16.47;75.58;100463.94;1819562;78;25792;-40
2023/08/24 02:03:39;;;;;;;79.25;74.25;;;;;;;16.48;75.29;100467.70;1787427;80;25391;-40
2023/08/24 02:06:06;;;;;;;75.20;70.47;;;;;;;16.51;75.31;100466.20;1819633;78;25530;-40
2023/08/24 02:08:34;;;;;;;79.17;74.25;;;;;;;16.51;75.09;100466.98;1787095;80;25626;-41
2023/08/24 02:11:00;;;;;;;77.42;72.35;;;;;;;16.52;74.91;100470.52;1819678;78;27562;-41
2023/08/24 02:13:26;;;;;;;77.12;72.25;;;;;;;16.53;75.18;100468.00;1787063;80;26073;-42
2023/08/24 02:16:04;;;;;;;80.60;75.42;;;;;;;16.52;74.97;100465.85;1819581;78;25385;-41
2023/08/24 02:18:31;;;;;;;76.40;71.70;;;;;;;16.52;75.08;100456.88;1787625;80;25700;-39
2023/08/24 02:20:57;;;;;;;78.52;73.33;;;;;;;16.50;75.16;100459.95;1819666;78;25620;-41
2023/08/24 02:23:23;;;;;;;78.28;73.07;;;;;;;16.49;75.05;100462.44;1782429;80;27316;-42
2023/08/24 02:25:50;;;;;;;77.78;72.78;;;;;;;16.49;75.20;100453.47;1814449;78;25845;-42
2023/08/24 02:28:16;;;;;;;78.30;73.28;;;;;;;16.49;75.10;100452.09;1787308;80;25469;-41
2023/08/24 02:30:42;;;;;;;77.58;72.65;;;;;;;16.46;75.10;100446.74;1787778;78;25579;-41
2023/08/24 02:33:08;;;;;;;77.85;72.75;;;;;;;16.46;75.16;100447.33;1787378;80;25448;-41
2023/08/24 02:35:34;;;;;;;77.42;72.27;;;;;;;16.41;75.30;100446.98;1822396;78;27460;-39
2023/08/24 02:38:00;;;;;;;77.00;72.30;;;;;;;16.36;75.39;100449.41;1793113;80;27441;-41
2023/08/24 02:40:26;;;;;;;76.77;72.12;;;;;;;16.32;75.49;100448.48;1825658;78;25553;-41
2023/08/24 02:42:53;;;;;;;8.20;7.25;;;;;;;16.29;75.44;100445.07;1793157;80;25554;-39
2023/08/24 02:45:19;;;;;;;78.12;73.33;;;;;;;16.28;75.70;100451.69;1795874;78;25404;-39
2023/08/24 02:47:45;;;;;;;79.67;74.40;;;;;;;16.25;75.70;100452.37;1793217;80;27469;-39
2023/08/24 02:50:11;;;;;;;77.78;72.60;;;;;;;16.22;75.53;100453.05;1825595;78;25619;-39
2023/08/24 02:52:37;;;;;;;78.80;73.83;;;;;;;16.20;75.58;100452.02;1793168;80;25615;-40
2023/08/24 02:55:05;;;;;;;76.67;71.97;;;;;;;16.19;75.61;100452.36;1825588;78;27725;-40
2023/08/24 02:57:31;;;;;;;80.38;74.97;;;;;;;16.16;75.75;100455.22;1764396;80;25625;-41
2023/08/24 02:59:58;;;;;;;77.20;72.40;;;;;;;16.14;75.92;100456.69;1825655;78;27542;-40
2023/08/24 03:02:24;;;;;;;79.65;74.55;;;;;;;16.12;75.91;100463.84;1793101;80;25359;-40
2023/08/24 03:04:50;;;;;;;78.60;73.65;;;;;;;16.09;76.14;100459.65;1825688;78;25529;-39
2023/08/24 03:07:17;;;;;;;80.87;75.57;;;;;;;16.08;76.19;100453.41;1793179;80;26416;-40
2023/08/24 03:09:43;;;;;;;81.50;76.50;;;;;;;16.06;76.42;100460.56;1825741;78;25559;-40
2023/08/24 03:12:09;;;;;;;76.70;71.85;;;;;;;16.04;76.50;100456.02;1793189;80;27458;-40
2023/08/24 03:14:35;;;;;;;78.28;73.17;;;;;;;16.04;76.41;100460.70;1825556;78;33164;-40
2023/08/24 03:17:04;;;;;;;78.92;73.67;;;;;;;16.03;76.64;100456.36;1793166;80;29985;-40
2023/08/24 03:19:29;;;;;;;79.30;73.85;;;;;;;16.02;76.74;100453.39;1825412;78;25585;-40
2023/08/24 03:21:55;;;;;;;77.50;72.67;;;;;;;16.02;76.63;100454.77;1793333;80;25374;-40
2023/08/24 03:24:21;;;;;;;76.90;71.92;;;;;;;15.99;76.77;100450.80;1825864;78;27515;-40
2023/08/24 03:26:47;;;;;;;80.32;75.22;;;;;;;15.97;76.90;100452.27;1793192;80;25666;-40
2023/08/24 03:29:14;;;;;;;78.83;73.47;;;;;;;15.95;76.81;100451.81;1825775;78;25456;-40
2023/08/24 03:31:40;;;;;;;81.42;76.00;;;;;;;15.90;76.81;100448.73;1764287;80;34694;-40
2023/08/24 03:34:06;;;;;;;81.25;75.72;;;;;;;15.87;77.05;100443.98;1825843;78;25513;-41
2023/08/24 03:36:32;;;;;;;77.00;72.25;;;;;;;15.84;77.07;100450.91;1788781;80;27463;-39
2023/08/24 03:38:58;;;;;;;79.90;74.70;;;;;;;15.82;77.17;100444.22;1819644;78;25359;-40
2023/08/24 03:41:25;;;;;;;76.25;70.97;;;;;;;15.83;77.35;100441.70;1787481;80;25613;-40
2023/08/24 03:43:51;;;;;;;79.37;74.37;;;;;;;15.81;77.32;100434.43;1819732;78;25575;-39
2023/08/24 03:46:17;;;;;;;79.58;74.17;;;;;;;15.79;77.32;100430.67;1787488;80;25645;-40
2023/08/24 03:48:43;;;;;;;81.47;76.37;;;;;;;15.78;77.36;100431.83;1819749;78;27463;-39
2023/08/24 03:51:10;;;;;;;78.05;72.82;;;;;;;15.79;77.29;100433.98;1787352;80;27261;-40
2023/08/24 03:53:36;;;;;;;80.97;75.72;;;;;;;15.79;77.38;100430.67;1819739;78;25726;-40
2023/08/24 03:56:02;;;;;;;80.38;75.08;;;;;;;15.80;77.54;100434.19;1787383;80;25599;-40
2023/08/24 03:58:29;;;;;;;77.80;72.62;;;;;;;15.80;77.36;100440.46;1819768;78;25605;-40
2023/08/24 04:00:55;;;;;;;78.33;73.30;;;;;;;15.80;77.45;100435.55;1787437;80;27543;-39
2023/08/24 04:03:21;;;;;;;77.05;72.10;;;;;;;15.80;77.28;100439.64;1819350;78;25589;-40
2023/08/24 04:05:47;;;;;;;81.37;76.22;;;;;;;15.79;77.15;100438.07;1787450;80;25614;-41
2023/08/24 04:08:13;;;;;;;79.07;73.97;;;;;;;15.78;77.30;100447.37;1814515;78;25977;-42
2023/08/24 04:10:39;;;;;;;80.17;75.00;;;;;;;15.76;77.54;100450.44;1787442;80;25422;-40
2023/08/24 04:13:06;;;;;;;79.95;74.85;;;;;;;15.74;77.65;100454.05;1819676;78;27449;-41
2023/08/24 04:15:32;;;;;;;83.80;78.33;;;;;;;15.74;77.77;100455.41;1787321;80;25785;-40
2023/08/24 04:17:58;;;;;;;81.78;76.22;;;;;;;15.74;77.79;100455.99;1819715;78;25546;-41
2023/08/24 04:20:25;;;;;;;78.75;73.62;;;;;;;15.75;77.88;100463.02;1787403;80;25583;-41
2023/08/24 04:22:52;;;;;;;81.17;75.62;;;;;;;15.77;78.17;100460.80;1819739;78;25538;-40
2023/08/24 04:25:18;;;;;;;78.07;72.97;;;;;;;15.78;78.24;100461.02;1787416;80;27470;-40
2023/08/24 04:27:44;;;;;;;82.35;76.67;;;;;;;15.78;78.17;100465.10;1819602;78;25667;-40
2023/08/24 04:30:13;;;;;;;79.32;74.35;;;;;;;15.79;78.24;100461.25;1787392;80;25646;-39
2023/08/24 04:32:40;;;;;;;82.02;76.62;;;;;;;15.83;78.48;100464.88;1819793;78;25635;-39
2023/08/24 04:35:08;;;;;;;79.70;74.25;;;;;;;15.86;78.49;100471.81;1787296;80;25421;-40
2023/08/24 04:37:34;;;;;;;79.05;73.85;;;;;;;15.90;78.65;100465.10;1819740;78;27459;-38
2023/08/24 04:40:01;;;;;;;78.60;73.33;;;;;;;15.94;78.74;100468.76;1787347;80;25659;-39
2023/08/24 04:42:28;;;;;;;51.10;47.58;;;;;;;15.97;78.79;100461.27;1819668;78;25425;-39
2023/08/24 04:44:54;;;;;;;10.58;6.50;;;;;;;16.04;78.90;100465.58;1787397;80;25513;-39
2023/08/24 04:47:20;;;;;;;8.35;6.20;;;;;;;16.09;78.90;100465.10;1787777;78;25386;-39
2023/08/24 04:49:46;;;;;;;20.17;18.67;;;;;;;16.12;78.91;100466.58;1787429;80;27408;-39
2023/08/24 04:52:14;;;;;;;17.52;15.93;;;;;;;16.17;79.01;100468.29;1819636;78;25525;-39
2023/08/24 04:54:40;;;;;;;81.87;76.75;;;;;;;16.21;78.95;100472.73;1787374;80;25540;-39
2023/08/24 04:57:06;;;;;;;80.28;75.28;;;;;;;16.25;78.90;100467.37;1819632;78;25628;-39
2023/08/24 04:59:33;;;;;;;80.47;75.40;;;;;;;16.28;78.95;100466.70;1787448;80;25610;-39
2023/08/24 05:01:59;;;;;;;78.37;73.17;;;;;;;16.35;79.04;100471.58;1819777;78;27450;-39
2023/08/24 05:04:25;;;;;;;79.53;74.35;;;;;;;16.40;79.16;100468.03;1787299;80;25523;-39
2023/08/24 05:06:51;;;;;;;81.35;76.22;;;;;;;16.47;79.11;100463.94;1819681;78;25569;-40
2023/08/24 05:09:17;;;;;;;76.42;71.28;;;;;;;16.52;79.02;100465.85;1787352;80;25544;-39
2023/08/24 05:11:44;;;;;;;80.45;75.35;;;;;;;16.59;79.21;100470.15;1819656;78;25534;-40
2023/08/24 05:14:10;;;;;;;79.40;74.27;;;;;;;16.68;79.04;100464.55;1787400;80;27483;-40
2023/08/24 05:16:36;;;;;;;78.45;73.40;;;;;;;16.76;78.92;100472.39;1819545;78;25388;-40
2023/08/24 05:19:03;;;;;;;79.05;73.87;;;;;;;16.84;78.85;100477.47;1787008;80;25665;-40
2023/08/24 05:21:29;;;;;;;79.50;74.40;;;;;;;16.94;78.68;100475.64;1819566;78;25586;-38
2023/08/24 05:23:55;;;;;;;79.95;74.95;;;;;;;17.01;78.44;100470.40;1782509;80;25635;-40
2023/08/24 05:26:25;;;;;;;78.78;73.78;;;;;;;17.10;78.38;100474.34;1819668;78;27408;-39
2023/08/24 05:28:53;;;;;;;82.22;77.15;;;;;;;17.20;78.27;100479.30;1787458;80;34991;-40
2023/08/24 05:31:19;;;;;;;79.25;74.22;;;;;;;17.29;78.03;100473.09;1792611;78;25394;-40
2023/08/24 05:33:46;;;;;;;79.12;74.03;;;;;;;17.42;78.04;100481.22;1787316;80;25488;-40
2023/08/24 05:36:12;;;;;;;79.80;74.77;;;;;;;17.53;77.74;100471.37;1821447;78;25604;-40
2023/08/24 05:38:38;;;;;;;76.75;71.80;;;;;;;17.65;77.37;100475.97;1790530;80;28285;-40
2023/08/24 05:41:05;;;;;;;75.85;71.12;;;;;;;17.78;77.20;100472.59;1825590;78;25555;-40
2023/08/24 05:43:31;;;;;;;77.65;72.62;;;;;;;17.92;77.15;100471.00;1793193;80;25439;-41
2023/08/24 05:45:57;;;;;;;75.70;70.85;;;;;;;18.05;76.86;100467.59;1825645;78;25557;-40
2023/08/24 05:48:23;;;;;;;76.50;71.62;;;;;;;18.19;76.46;100460.28;1793342;80;25617;-40
2023/08/24 05:50:49;;;;;;;79.65;74.75;;;;;;;18.36;76.26;100470.05;1825675;78;27586;-40
2023/08/24 05:53:15;;;;;;;77.15;72.15;;;;;;;18.52;76.02;100471.36;1793169;80;25550;-40
2023/08/24 05:55:42;;;;;;;77.25;72.55;;;;;;;18.71;75.74;100469.80;1795663;78;25486;-39
2023/08/24 05:58:09;;;;;;;76.00;71.20;;;;;;;18.89;75.27;100472.95;1793165;80;25464;-40
2023/08/24 06:00:35;;;;;;;74.85;70.22;;;;;;;19.06;74.74;100471.71;1825738;78;25579;-40
2023/08/24 06:03:02;;;;;;;76.50;71.70;;;;;;;19.22;74.43;100473.77;1793123;80;27515;-40
2023/08/24 06:05:31;;;;;;;75.12;70.42;;;;;;;19.38;73.85;100471.72;1825659;78;25460;-40
2023/08/24 06:07:57;;;;;;;75.40;70.47;;;;;;;19.56;73.31;100475.35;1793165;80;25610;-40
2023/08/24 06:10:26;;;;;;;74.15;69.60;;;;;;;19.73;72.85;100473.52;1825655;78;25637;-40
2023/08/24 06:12:52;;;;;;;76.00;71.20;;;;;;;19.88;71.87;100469.05;1793238;80;25632;-40
2023/08/24 06:15:19;;;;;;;74.62;70.12;;;;;;;20.05;71.58;100472.45;1825711;78;25900;-39
2023/08/24 06:17:47;;;;;;;76.50;71.70;;;;;;;20.23;71.60;100470.77;1793375;80;25468;-40
2023/08/24 06:20:13;;;;;;;74.05;69.53;;;;;;;20.43;71.47;100472.83;1825657;78;25464;-40
2023/08/24 06:22:39;;;;;;;72.65;68.25;;;;;;;20.64;71.12;100471.55;1793156;80;25593;-39
2023/08/24 06:25:08;;;;;;;73.65;68.78;;;;;;;20.84;70.75;100476.29;1825743;78;25440;-40
2023/08/24 06:27:35;;;;;;;72.85;68.42;;;;;;;21.04;70.03;100476.92;1793336;80;28170;-39
2023/08/24 06:30:03;;;;;;;72.32;68.00;;;;;;;21.20;69.29;100473.97;1825635;78;25962;-40
2023/08/24 06:32:29;;;;;;;72.90;68.45;;;;;;;21.40;68.43;100471.78;1793291;80;25444;-40
2023/08/24 06:34:56;;;;;;;71.80;67.42;;;;;;;21.56;67.75;100471.00;1826434;78;25578;-40
2023/08/24 06:37:22;;;;;;;71.25;66.65;;;;;;;21.74;67.51;100468.98;1794283;80;25572;-40
2023/08/24 06:39:48;;;;;;;70.72;66.28;;;;;;;21.94;67.71;100465.41;1826965;78;27447;-40
2023/08/24 06:42:14;;;;;;;70.95;66.55;;;;;;;22.16;66.76;100471.84;1794361;80;25184;-40
2023/08/24 06:44:40;;;;;;;69.45;64.62;;;;;;;22.35;65.95;100462.54;1826819;78;25196;-40
2023/08/24 06:47:07;;;;;;;72.08;67.37;;;;;;;22.56;65.64;100466.80;1794336;80;25516;-40
2023/08/24 06:49:33;;;;;;;71.55;67.35;;;;;;;22.75;64.51;100461.55;1825779;78;25424;-40
2023/08/24 06:51:59;;;;;;;71.37;65.92;;;;;;;22.97;64.61;100463.58;1793422;80;27518;-40
2023/08/24 06:54:25;;;;;;;66.60;62.78;;;;;;;23.15;63.44;100467.21;1826287;78;25384;-40
2023/08/24 06:56:51;;;;;;;68.57;64.12;;;;;;;23.35;63.27;100459.97;1794052;80;25700;-40
2023/08/24 06:59:17;;;;;;;69.30;65.30;;;;;;;23.60;62.20;100463.54;1826150;78;25509;-41
2023/08/24 07:01:44;;;;;;;68.30;63.50;;;;;;;23.74;61.34;100471.63;1793498;80;25381;-41
2023/08/24 07:04:10;;;;;;;68.05;63.55;;;;;;;24.00;60.81;100471.23;1825935;78;28221;-41
2023/08/24 07:06:37;;;;;;;69.12;64.75;;;;;;;24.18;60.22;100467.67;1793380;80;25565;-41
2023/08/24 07:09:06;;;;;;;69.07;64.85;;;;;;;24.40;60.50;100470.57;1825857;78;25430;-41
2023/08/24 07:11:32;;;;;;;67.92;63.60;;;;;;;24.67;58.97;100470.13;1793515;80;26074;-41
2023/08/24 07:13:58;;;;;;;66.07;61.95;;;;;;;24.89;57.64;100476.92;1825939;78;25428;-41
2023/08/24 07:16:24;;;;;;;66.92;62.93;;;;;;;25.10;56.98;100474.05;1793391;80;27574;-41
2023/08/24 07:18:50;;;;;;;67.15;63.17;;;;;;;25.33;55.11;100484.59;1825881;78;25542;-40
2023/08/24 07:21:17;;;;;;;64.62;60.95;;;;;;;25.49;54.01;100474.42;1793449;80;25382;-41
2023/08/24 07:23:44;;;;;;;65.67;61.95;;;;;;;25.66;53.14;100483.78;1825908;78;26065;-42
2023/08/24 07:26:12;;;;;;;65.37;61.45;;;;;;;25.81;52.10;100481.69;1793454;80;25562;-39
2023/08/24 07:28:39;;;;;;;64.27;60.48;;;;;;;25.85;50.93;100485.81;1826121;78;27555;-40
2023/08/24 07:31:12;;;;;;;64.62;60.73;;;;;;;25.91;50.88;100486.93;1793330;80;25436;-41
2023/08/24 07:33:39;;;;;;;63.63;59.83;;;;;;;26.01;50.12;100483.91;1825898;78;25662;-40
2023/08/24 07:36:07;;;;;;;63.58;60.08;;;;;;;26.24;50.77;100481.91;1793333;80;25968;-40
2023/08/24 07:38:34;;;;;;;63.13;59.42;;;;;;;26.56;49.87;100484.91;1826219;78;25411;-41
2023/08/24 07:41:00;;;;;;;65.70;61.90;;;;;;;26.73;49.08;100486.73;1793358;80;27572;-41
2023/08/24 07:43:26;;;;;;;64.03;60.17;;;;;;;26.97;48.33;100480.67;1795648;78;25710;-41
2023/08/24 07:45:52;;;;;;;63.35;59.77;;;;;;;27.09;47.65;100479.90;1793429;80;25601;-41
2023/08/24 07:48:19;;;;;;;64.62;60.95;;;;;;;27.26;47.95;100485.02;1825944;78;25533;-41
2023/08/24 07:50:46;;;;;;;63.28;59.70;;;;;;;27.54;47.93;100478.28;1793411;80;25457;-41
2023/08/24 07:53:12;;;;;;;62.95;59.10;;;;;;;27.87;47.34;100473.77;1825857;78;27461;-41
2023/08/24 07:55:38;;;;;;;78.72;73.45;;;;;;;22.46;47.11;99521.58;1793260;80;25476;-39
2023/08/24 08:00:29;;;;;;;7.07;6.77;;;;;;;28.58;43.84;100488.19;1905541;74;28918;-41
2023/08/24 09:40:26;;;;;;;62.20;58.65;;;;;;;31.24;34.84;100445.91;1868266;76;34611;-40
2023/08/24 09:42:55;;;;;;;61.53;57.90;;;;;;;25.06;34.79;99488.30;1819341;78;25587;-40
2023/08/24 09:45:23;;;;;;;62.38;59.05;;;;;;;30.79;34.62;100441.31;1824370;78;27316;-41
2023/08/24 09:47:54;;;;;;;63.02;59.20;;;;;;;30.59;35.34;100434.53;1824362;78;25473;-41
2023/08/24 09:50:24;;;;;;;62.17;58.75;;;;;;;30.60;35.26;100436.70;1824567;78;25345;-40
2023/08/24 09:52:54;;;;;;;62.08;58.80;;;;;;;30.61;35.52;100437.66;1824412;78;25093;-40
2023/08/24 09:55:25;;;;;;;60.95;57.78;;;;;;;30.38;35.32;100433.16;1824553;78;25284;-40
2023/08/24 09:57:57;;;;;;;62.15;58.75;;;;;;;30.27;35.94;100429.85;1824438;78;27372;-41
2023/08/24 10:00:28;;;;;;;60.88;57.48;;;;;;;30.59;35.98;100427.55;1824367;78;25528;-41
2023/08/24 10:02:59;;;;;;;61.23;57.93;;;;;;;30.95;36.02;100428.52;1824467;78;25480;-40
2023/08/24 10:05:30;;;;;;;61.45;58.13;;;;;;;31.34;35.58;100418.09;1824391;78;25510;-40
2023/08/24 10:07:59;;;;;;;61.02;57.73;;;;;;;31.27;34.61;100419.10;1803961;78;25543;-40
2023/08/24 10:10:29;;;;;;;61.90;58.55;;;;;;;31.57;35.19;100421.93;1824333;78;27458;-41
2023/08/24 10:13:05;;;;;;;61.77;58.50;;;;;;;32.10;34.93;100421.31;1824313;78;25494;-40
2023/08/24 10:15:36;;;;;;;60.65;57.45;;;;;;;32.61;34.97;100425.86;1824246;78;25351;-40
2023/08/24 10:18:07;;;;;;;61.15;57.75;;;;;;;33.20;34.43;100425.17;1824400;78;25991;-41
2023/08/24 10:20:35;;;;;;;60.03;56.53;;;;;;;33.48;33.22;100427.42;1824435;78;25455;-41
